Time;durP1;ratioP1;P1;durP2;ratioP2;P2;SDS_P1;SDS_P2;PMS_P1;PMS_P2;Temp;Humidity;BMP_temperature;BMP_pressure;BME280_temperature;BME280_humidity;BME280_pressure;Samples;Min_cycle;Max_cycle;Signal;HPM_P1;HPM_P2
2022/09/26 00:01:17;;;;;;;1.90;1.80;;;;;;;-145.23;100.00;58621.06;5011344;28;20242;-52
2022/09/26 00:03:45;;;;;;;2.70;2.50;;;;;;;-145.23;100.00;58621.06;4996023;28;20244;-52
2022/09/26 00:06:12;;;;;;;1.92;1.83;;;;;;;-145.23;100.00;58621.06;4986833;28;20233;-52
2022/09/26 00:08:40;;;;;;;3.60;2.53;;;;;;;-145.23;100.00;58621.06;4986950;28;20731;-54
2022/09/26 00:11:08;;;;;;;2.97;2.15;;;;;;;-145.23;100.00;58621.06;4989398;28;20226;-52
2022/09/26 00:13:37;;;;;;;2.92;2.10;;;;;;;-145.23;100.00;58621.06;4992711;28;20600;-51
2022/09/26 00:16:04;;;;;;;2.35;2.15;;;;;;;-145.23;100.00;58621.06;4994049;28;20811;-52
2022/09/26 00:18:31;;;;;;;3.15;2.45;;;;;;;-145.23;100.00;58621.06;4991943;28;20264;-52
2022/09/26 00:21:03;;;;;;;2.45;2.20;;;;;;;-145.23;100.00;58621.06;4990322;28;20245;-52
2022/09/26 00:23:30;;;;;;;2.42;2.22;;;;;;;-145.23;100.00;58621.06;5010996;28;20273;-51
2022/09/26 00:25:59;;;;;;;3.75;2.40;;;;;;;-145.23;100.00;58621.06;4993766;28;20317;-53
2022/09/26 00:28:26;;;;;;;2.65;2.30;;;;;;;-145.23;100.00;58621.06;4985441;28;20872;-52
2022/09/26 00:30:53;;;;;;;2.78;2.58;;;;;;;-145.23;100.00;58621.06;4989819;28;20280;-51
2022/09/26 00:33:20;;;;;;;3.80;2.55;;;;;;;-145.23;100.00;58621.06;4991162;28;20238;-52
2022/09/26 00:35:50;;;;;;;4.78;2.80;;;;;;;-145.23;100.00;58621.06;4991760;28;20727;-52
2022/09/26 00:38:16;;;;;;;2.92;2.60;;;;;;;-145.23;100.00;58621.06;4993775;28;20683;-52
2022/09/26 00:40:42;;;;;;;3.03;2.40;;;;;;;-145.23;100.00;58621.06;4997848;28;20233;-52
2022/09/26 00:43:26;;;;;;;2.83;2.63;;;;;;;-145.23;100.00;58621.06;5009034;28;20236;-51
2022/09/26 00:45:53;;;;;;;3.17;2.40;;;;;;;-145.23;100.00;58621.06;4991998;28;20234;-51
2022/09/26 00:48:20;;;;;;;4.55;2.53;;;;;;;-145.23;100.00;58621.06;4999824;28;20241;-52
2022/09/26 00:50:46;;;;;;;8.10;2.58;;;;;;;-145.23;100.00;58621.06;4993253;28;20265;-53
2022/09/26 00:53:16;;;;;;;2.75;2.55;;;;;;;-145.23;100.00;58621.06;4994991;28;20232;-52
2022/09/26 00:55:45;;;;;;;2.78;2.28;;;;;;;-145.23;100.00;58621.06;4991571;28;20234;-52
2022/09/26 00:58:13;;;;;;;3.53;3.00;;;;;;;-145.23;100.00;58621.06;4997270;28;20241;-52
2022/09/26 01:00:42;;;;;;;7.22;3.15;;;;;;;-145.23;100.00;58621.06;4996459;28;20244;-52
2022/09/26 01:03:08;;;;;;;3.42;2.72;;;;;;;-145.23;100.00;58621.06;5003476;28;20607;-51
2022/09/26 01:05:36;;;;;;;3.17;2.42;;;;;;;-145.23;100.00;58621.06;4990449;28;20890;-52
2022/09/26 01:08:02;;;;;;;3.10;2.83;;;;;;;-145.23;100.00;58621.06;4961338;28;1337474;-51
2022/09/26 01:10:29;;;;;;;3.03;2.83;;;;;;;-145.23;100.00;58621.06;4993396;28;20237;-52
2022/09/26 01:12:57;;;;;;;4.07;3.40;;;;;;;-145.23;100.00;58621.06;4988773;28;20245;-51
2022/09/26 01:15:23;;;;;;;4.43;3.00;;;;;;;-145.23;100.00;58621.06;4989267;28;20671;-53
2022/09/26 01:17:52;;;;;;;3.90;3.20;;;;;;;-145.23;100.00;58621.06;5004256;28;20692;-51
2022/09/26 01:20:32;;;;;;;2.47;2.28;;;;;;;-145.23;100.00;58621.06;4993560;28;20233;-51
2022/09/26 01:23:41;;;;;;;3.53;2.78;;;;;;;-145.23;100.00;58621.06;4991514;28;20241;-54
2022/09/26 01:26:42;;;;;;;4.68;3.83;;;;;;;-145.23;100.00;58621.06;4992549;28;20715;-51
2022/09/26 01:29:45;;;;;;;3.58;3.28;;;;;;;-145.23;100.00;58621.06;4997205;28;20225;-53
2022/09/26 01:35:11;;;;;;;2.60;2.40;;;;;;;-145.23;100.00;58621.06;4991234;28;20233;-53
2022/09/26 01:37:42;;;;;;;2.95;2.70;;;;;;;-145.23;100.00;58621.06;4998519;28;20320;-52
2022/09/26 01:40:10;;;;;;;2.55;2.35;;;;;;;-145.23;100.00;58621.06;4992245;28;20242;-51
2022/09/26 01:42:43;;;;;;;3.30;3.05;;;;;;;-145.23;100.00;58621.06;4994688;28;20409;-52
2022/09/26 01:45:14;;;;;;;2.97;2.55;;;;;;;-145.23;100.00;58621.06;5006273;28;20605;-52
2022/09/26 01:47:45;;;;;;;3.53;2.83;;;;;;;-145.23;100.00;58621.06;4992912;28;20755;-52
2022/09/26 01:50:15;;;;;;;5.22;3.00;;;;;;;-145.23;100.00;58621.06;5007558;28;20240;-52
2022/09/26 01:52:45;;;;;;;3.25;2.50;;;;;;;-145.23;100.00;58621.06;5016880;28;20315;-51
2022/09/26 01:55:14;;;;;;;4.18;3.50;;;;;;;-145.23;100.00;58621.06;4992755;28;20328;-51
2022/09/26 01:57:44;;;;;;;3.50;3.20;;;;;;;-145.23;100.00;58621.06;4997346;28;20245;-51
2022/09/26 02:00:12;;;;;;;3.97;3.22;;;;;;;-145.23;100.00;58621.06;4997785;28;20225;-51
2022/09/26 02:02:43;;;;;;;4.18;2.30;;;;;;;-145.23;100.00;58621.06;5001163;28;20327;-52
2022/09/26 02:05:15;;;;;;;3.22;2.92;;;;;;;-145.23;100.00;58621.06;5001082;28;20302;-52
2022/09/26 02:07:45;;;;;;;3.15;2.83;;;;;;;-145.23;100.00;58621.06;4993754;28;20292;-52
2022/09/26 02:10:15;;;;;;;2.90;2.70;;;;;;;-145.23;100.00;58621.06;4994218;28;20237;-51
2022/09/26 02:12:45;;;;;;;3.05;2.85;;;;;;;-145.23;100.00;58621.06;4998475;28;20229;-52
2022/09/26 02:15:15;;;;;;;8.00;2.88;;;;;;;-145.23;100.00;58621.06;4998027;28;20240;-51
2022/09/26 02:17:46;;;;;;;5.35;2.72;;;;;;;-145.23;100.00;58621.06;5013908;28;20248;-52
2022/09/26 02:20:16;;;;;;;2.83;2.33;;;;;;;-145.23;100.00;58621.06;5020646;28;20248;-52
2022/09/26 02:22:43;;;;;;;4.32;2.92;;;;;;;-145.23;100.00;58621.06;5003522;28;20238;-54
2022/09/26 02:25:10;;;;;;;4.22;3.03;;;;;;;-145.23;100.00;58621.06;5005162;28;20720;-53
2022/09/26 02:27:37;;;;;;;5.95;2.85;;;;;;;-145.23;100.00;58621.06;4997675;28;20233;-53
2022/09/26 02:30:04;;;;;;;2.80;2.60;;;;;;;-145.23;100.00;58621.06;5005327;28;20225;-55
2022/09/26 02:32:32;;;;;;;3.97;2.90;;;;;;;-145.23;100.00;58621.06;5009758;28;20229;-52
2022/09/26 02:35:00;;;;;;;2.50;2.30;;;;;;;-145.23;100.00;58621.06;4997235;28;20295;-52
2022/09/26 02:37:29;;;;;;;6.17;2.33;;;;;;;-145.23;100.00;58621.06;4994222;28;20238;-51
2022/09/26 02:39:56;;;;;;;6.23;3.03;;;;;;;-145.23;100.00;58621.06;4997632;28;20257;-51
2022/09/26 02:42:27;;;;;;;6.15;3.92;;;;;;;-145.23;100.00;58621.06;5002782;28;20243;-51
2022/09/26 02:45:11;;;;;;;3.58;2.50;;;;;;;-145.23;100.00;58621.06;5015284;28;20233;-51
2022/09/26 02:47:46;;;;;;;4.07;2.63;;;;;;;-145.23;100.00;58621.06;5014168;28;20435;-53
2022/09/26 02:50:51;;;;;;;4.45;2.88;;;;;;;-145.23;100.00;58621.06;5000426;28;20233;-52
2022/09/26 02:53:26;;;;;;;4.07;2.42;;;;;;;-145.23;100.00;58621.06;4995703;28;20226;-51
2022/09/26 02:56:02;;;;;;;7.00;2.85;;;;;;;-145.23;100.00;58621.06;4992723;28;20280;-52
2022/09/26 02:58:35;;;;;;;4.75;2.83;;;;;;;-145.23;100.00;58621.06;5005107;28;20237;-52
2022/09/26 03:01:06;;;;;;;3.45;2.85;;;;;;;-145.23;100.00;58621.06;4998175;28;20291;-51
2022/09/26 03:03:35;;;;;;;3.75;2.47;;;;;;;-145.23;100.00;58621.06;4997340;28;20230;-51
2022/09/26 03:06:06;;;;;;;2.95;2.47;;;;;;;-145.23;100.00;58621.06;4993507;28;20229;-52
2022/09/26 03:08:36;;;;;;;3.80;2.53;;;;;;;-145.23;100.00;58621.06;4987266;28;20234;-51
2022/09/26 03:11:04;;;;;;;3.15;2.58;;;;;;;-145.23;100.00;58621.06;4999868;28;20225;-53
2022/09/26 03:13:34;;;;;;;3.37;3.07;;;;;;;-145.23;100.00;58621.06;5014593;28;20235;-52
2022/09/26 03:16:01;;;;;;;4.75;2.78;;;;;;;-145.23;100.00;58621.06;4990141;28;20228;-51
2022/09/26 03:18:31;;;;;;;3.88;2.70;;;;;;;-145.23;100.00;58621.06;4991008;28;20268;-52
2022/09/26 03:20:58;;;;;;;4.75;2.88;;;;;;;-145.23;100.00;58621.06;4993591;28;20244;-51
2022/09/26 03:23:27;;;;;;;4.30;2.43;;;;;;;-145.23;100.00;58621.06;4990720;28;20327;-52
2022/09/26 03:25:59;;;;;;;4.37;2.30;;;;;;;-145.23;100.00;58621.06;5007525;28;20293;-52
2022/09/26 03:28:26;;;;;;;3.67;2.70;;;;;;;-145.23;100.00;58621.06;5008573;28;20841;-52
2022/09/26 03:30:52;;;;;;;2.80;2.47;;;;;;;-145.23;100.00;58621.06;4988550;28;20229;-54
2022/09/26 03:33:18;;;;;;;2.95;2.75;;;;;;;-145.23;100.00;58621.06;4993720;28;20601;-52
2022/09/26 03:35:45;;;;;;;5.73;2.83;;;;;;;-145.23;100.00;58621.06;4989538;28;20793;-52
2022/09/26 03:38:11;;;;;;;2.80;2.57;;;;;;;-145.23;100.00;58621.06;5001270;28;20255;-51
2022/09/26 03:40:40;;;;;;;3.40;2.70;;;;;;;-145.23;100.00;58621.06;5004903;28;20256;-52
2022/09/26 03:43:07;;;;;;;3.83;2.63;;;;;;;-145.23;100.00;58621.06;4988763;28;20233;-52
2022/09/26 03:45:35;;;;;;;2.28;2.15;;;;;;;-145.23;100.00;58621.06;4997272;28;20244;-51
2022/09/26 03:48:02;;;;;;;7.57;2.95;;;;;;;-145.23;100.00;58621.06;4995268;28;20257;-52
2022/09/26 03:50:29;;;;;;;4.93;3.00;;;;;;;-145.23;100.00;58621.06;4993269;28;20241;-52
2022/09/26 03:52:55;;;;;;;3.35;2.72;;;;;;;-145.23;100.00;58621.06;4994371;28;20232;-53
2022/09/26 03:55:22;;;;;;;4.05;2.72;;;;;;;-145.23;100.00;58621.06;5006901;28;20229;-52
2022/09/26 03:57:49;;;;;;;3.85;3.10;;;;;;;-145.23;100.00;58621.06;5001719;28;20238;-50
2022/09/26 04:00:16;;;;;;;3.22;3.03;;;;;;;-145.23;100.00;58621.06;4992775;28;20252;-51
2022/09/26 04:02:43;;;;;;;2.65;2.33;;;;;;;-145.23;100.00;58621.06;5002405;28;20266;-51
2022/09/26 04:05:09;;;;;;;4.13;2.60;;;;;;;-145.23;100.00;58621.06;4996415;28;20287;-51
2022/09/26 04:07:36;;;;;;;3.70;2.80;;;;;;;-145.23;100.00;58621.06;4985631;28;20728;-52
2022/09/26 04:10:02;;;;;;;4.63;2.77;;;;;;;-145.23;100.00;58621.06;4999281;28;20228;-50
2022/09/26 04:12:29;;;;;;;4.53;2.67;;;;;;;-145.23;100.00;58621.06;4998777;28;20722;-53
2022/09/26 04:14:57;;;;;;;3.10;2.57;;;;;;;-145.23;100.00;58621.06;4991793;28;20246;-52
2022/09/26 04:17:23;;;;;;;3.58;2.78;;;;;;;-145.23;100.00;58621.06;4989410;28;20245;-52
2022/09/26 04:19:49;;;;;;;2.67;2.47;;;;;;;-145.23;100.00;58621.06;4996984;28;20230;-51
2022/09/26 04:22:16;;;;;;;4.50;2.85;;;;;;;-145.23;100.00;58621.06;5003498;28;20244;-50
2022/09/26 04:24:43;;;;;;;3.27;2.60;;;;;;;-145.23;100.00;58621.06;5000593;28;21482;-52
2022/09/26 04:27:10;;;;;;;5.22;2.90;;;;;;;-145.23;100.00;58621.06;4993134;28;20261;-52
2022/09/26 04:29:36;;;;;;;5.80;3.00;;;;;;;-145.23;100.00;58621.06;4996541;28;20262;-52
2022/09/26 04:32:04;;;;;;;4.57;3.20;;;;;;;-145.23;100.00;58621.06;4990827;28;20236;-51
2022/09/26 04:34:30;;;;;;;2.80;2.43;;;;;;;-145.23;100.00;58621.06;4991367;28;20233;-51
2022/09/26 04:36:59;;;;;;;5.15;3.53;;;;;;;-145.23;100.00;58621.06;5008906;28;20249;-56
2022/09/26 04:39:25;;;;;;;4.57;3.03;;;;;;;-145.23;100.00;58621.06;5012940;28;20263;-54
2022/09/26 04:41:52;;;;;;;3.03;2.70;;;;;;;-145.23;100.00;58621.06;5008602;28;20226;-54
2022/09/26 04:44:18;;;;;;;2.75;2.55;;;;;;;-145.23;100.00;58621.06;4994534;28;20237;-53
2022/09/26 04:46:45;;;;;;;4.18;3.17;;;;;;;-145.23;100.00;58621.06;4993472;28;20230;-50
2022/09/26 04:49:15;;;;;;;3.03;2.73;;;;;;;-145.23;100.00;58621.06;4995901;28;20229;-55
2022/09/26 04:51:42;;;;;;;4.00;3.00;;;;;;;-145.23;100.00;58621.06;4995184;28;20238;-52
2022/09/26 04:54:08;;;;;;;8.03;3.13;;;;;;;-145.23;100.00;58621.06;5000684;28;20228;-53
2022/09/26 04:56:35;;;;;;;4.33;2.87;;;;;;;-145.23;100.00;58621.06;4993422;28;20975;-53
2022/09/26 04:59:02;;;;;;;4.10;3.63;;;;;;;-145.23;100.00;58621.06;5000792;28;20241;-52
2022/09/26 05:01:28;;;;;;;5.43;3.30;;;;;;;-145.23;100.00;58621.06;4999294;28;20241;-53
2022/09/26 05:03:57;;;;;;;3.33;3.03;;;;;;;-145.23;100.00;58621.06;4993006;28;20254;-51
2022/09/26 05:06:25;;;;;;;4.57;4.17;;;;;;;-145.23;100.00;58621.06;4991946;28;20237;-52
2022/09/26 05:08:51;;;;;;;4.90;3.80;;;;;;;-145.23;100.00;58621.06;5000819;28;20237;-52
2022/09/26 05:11:20;;;;;;;8.83;3.60;;;;;;;-145.23;100.00;58621.06;4995762;28;20248;-53
2022/09/26 05:13:49;;;;;;;3.57;3.23;;;;;;;-145.23;100.00;58621.06;4993095;28;20230;-51
2022/09/26 05:16:18;;;;;;;4.27;3.57;;;;;;;-145.23;100.00;58621.06;4995902;28;20325;-52
2022/09/26 05:18:44;;;;;;;5.80;4.60;;;;;;;-145.23;100.00;58621.06;5000347;28;20241;-51
2022/09/26 05:21:11;;;;;;;5.27;3.73;;;;;;;-145.23;100.00;58621.06;4995375;28;20237;-52
2022/09/26 05:26:24;;;;;;;4.70;3.17;;;;;;;-145.23;100.00;58621.06;4995976;28;20279;-53
2022/09/26 05:28:53;;;;;;;6.03;4.63;;;;;;;-145.23;100.00;58621.06;4994362;28;20234;-52
2022/09/26 05:31:21;;;;;;;5.17;3.47;;;;;;;-145.23;100.00;58621.06;5003062;28;20583;-51
2022/09/26 05:33:50;;;;;;;5.70;3.93;;;;;;;-145.23;100.00;58621.06;5001884;28;20269;-52
2022/09/26 05:36:16;;;;;;;7.17;3.50;;;;;;;-145.23;100.00;58621.06;4999743;28;20232;-52
2022/09/26 05:38:45;;;;;;;4.50;3.67;;;;;;;-145.23;100.00;58621.06;4998992;28;20241;-52
2022/09/26 05:41:11;;;;;;;3.63;3.33;;;;;;;-145.23;100.00;58621.06;4996290;28;20224;-51
2022/09/26 05:43:37;;;;;;;4.03;3.70;;;;;;;-145.23;100.00;58621.06;4996784;28;20320;-52
2022/09/26 05:46:05;;;;;;;5.53;4.33;;;;;;;-145.23;100.00;58621.06;4993605;28;20230;-53
2022/09/26 05:48:34;;;;;;;5.27;3.80;;;;;;;-145.23;100.00;58621.06;4993474;28;20242;-53
2022/09/26 05:51:04;;;;;;;5.87;4.90;;;;;;;-145.23;100.00;58621.06;5014105;28;20644;-52
2022/09/26 05:53:31;;;;;;;5.13;4.40;;;;;;;-145.23;100.00;58621.06;5003688;28;20794;-51
2022/09/26 05:55:59;;;;;;;5.37;4.23;;;;;;;-145.23;100.00;58621.06;5014908;28;20288;-53
2022/09/26 05:58:31;;;;;;;5.43;3.80;;;;;;;-145.23;100.00;58621.06;5000293;28;20305;-52
2022/09/26 06:01:01;;;;;;;5.43;4.53;;;;;;;-145.23;100.00;58621.06;5002160;28;20712;-54
2022/09/26 06:03:33;;;;;;;3.93;3.60;;;;;;;-145.23;100.00;58621.06;4999322;28;20236;-52
2022/09/26 06:06:04;;;;;;;4.70;3.80;;;;;;;-145.23;100.00;58621.06;5015586;28;20232;-51
2022/09/26 06:08:30;;;;;;;5.90;4.53;;;;;;;-145.23;100.00;58621.06;5001082;28;20268;-51
2022/09/26 06:11:02;;;;;;;7.80;4.53;;;;;;;-145.23;100.00;58621.06;5004818;28;20241;-52
2022/09/26 06:13:29;;;;;;;4.70;3.53;;;;;;;-145.23;100.00;58621.06;4995422;28;20233;-51
2022/09/26 06:15:57;;;;;;;4.50;3.97;;;;;;;-145.23;100.00;58621.06;5003430;28;20580;-53
2022/09/26 06:18:23;;;;;;;4.43;3.77;;;;;;;-145.23;100.00;58621.06;5005919;28;20257;-54
2022/09/26 06:20:50;;;;;;;4.70;3.70;;;;;;;-145.23;100.00;58621.06;5006780;28;20658;-51
2022/09/26 06:23:16;;;;;;;5.63;3.77;;;;;;;-145.23;100.00;58621.06;5006422;28;20237;-51
2022/09/26 06:25:43;;;;;;;5.53;4.00;;;;;;;-145.23;100.00;58621.06;5005578;28;20249;-52
2022/09/26 06:28:11;;;;;;;7.13;4.00;;;;;;;-145.23;100.00;58621.06;5011200;28;20556;-51
2022/09/26 06:30:38;;;;;;;5.63;4.10;;;;;;;-145.23;100.00;58621.06;5016009;28;20612;-51
2022/09/26 06:33:04;;;;;;;6.30;4.13;;;;;;;-145.23;100.00;58621.06;4998934;28;20531;-53
2022/09/26 06:35:32;;;;;;;3.90;3.50;;;;;;;-145.23;100.00;58621.06;5018167;28;20251;-52
2022/09/26 06:37:59;;;;;;;5.40;3.67;;;;;;;-145.23;100.00;58621.06;5019414;28;20245;-52
2022/09/26 06:40:25;;;;;;;3.63;3.30;;;;;;;-145.23;100.00;58621.06;4989419;28;20663;-52
2022/09/26 06:42:54;;;;;;;5.10;3.73;;;;;;;-145.23;100.00;58621.06;4998716;28;20241;-53
2022/09/26 06:45:22;;;;;;;4.50;3.40;;;;;;;-145.23;100.00;58621.06;5004145;28;20233;-52
2022/09/26 06:47:48;;;;;;;7.77;4.33;;;;;;;-145.23;100.00;58621.06;5009030;28;20241;-51
2022/09/26 06:50:15;;;;;;;5.70;3.30;;;;;;;-145.23;100.00;58621.06;5015296;28;20229;-53
2022/09/26 06:52:42;;;;;;;3.83;3.30;;;;;;;-145.23;100.00;58621.06;4994991;28;20245;-52
2022/09/26 06:55:10;;;;;;;4.10;3.70;;;;;;;-145.23;100.00;58621.06;4988330;28;20268;-51
2022/09/26 06:57:38;;;;;;;5.77;3.30;;;;;;;-145.23;100.00;58621.06;5008390;28;20253;-53
2022/09/26 07:00:06;;;;;;;6.32;3.97;;;;;;;-145.23;100.00;58621.06;4993824;28;20276;-52
2022/09/26 07:02:34;;;;;;;7.07;5.00;;;;;;;-145.23;100.00;58621.06;5006575;28;20301;-51
2022/09/26 07:05:01;;;;;;;9.70;5.63;;;;;;;-145.23;100.00;58621.06;5021823;28;20233;-52
2022/09/26 07:07:28;;;;;;;6.30;4.90;;;;;;;-145.23;100.00;58621.06;5012882;28;20233;-52
2022/09/26 07:09:55;;;;;;;8.17;5.53;;;;;;;-145.23;100.00;58621.06;4994651;28;20715;-53
2022/09/26 07:12:23;;;;;;;8.23;6.27;;;;;;;-145.23;100.00;58621.06;5013933;28;20312;-52
2022/09/26 07:14:50;;;;;;;8.00;5.93;;;;;;;-145.23;100.00;58621.06;5011553;28;20314;-53
2022/09/26 07:17:17;;;;;;;7.73;5.97;;;;;;;-145.23;100.00;58621.06;5018176;28;20251;-50
2022/09/26 07:19:45;;;;;;;10.67;5.67;;;;;;;-145.23;100.00;58621.06;5004430;28;20237;-51
2022/09/26 07:22:14;;;;;;;8.63;6.43;;;;;;;-145.23;100.00;58621.06;5005643;28;20332;-51
2022/09/26 07:24:43;;;;;;;6.17;5.57;;;;;;;-145.23;100.00;58621.06;4988910;28;20249;-54
2022/09/26 07:27:10;;;;;;;5.23;4.70;;;;;;;-145.23;100.00;58621.06;4991199;28;20244;-53
2022/09/26 07:29:36;;;;;;;6.03;4.80;;;;;;;-145.23;100.00;58621.06;5006893;28;20237;-55
2022/09/26 07:32:03;;;;;;;7.05;4.90;;;;;;;-145.23;100.00;58621.06;4994265;28;20237;-52
2022/09/26 07:34:30;;;;;;;5.77;4.20;;;;;;;-145.23;100.00;58621.06;5003222;28;20232;-52
2022/09/26 07:36:58;;;;;;;4.30;3.60;;;;;;;-145.23;100.00;58621.06;5013693;28;20307;-53
2022/09/26 07:39:25;;;;;;;5.90;3.47;;;;;;;-145.23;100.00;58621.06;4995738;28;20251;-52
2022/09/26 07:41:52;;;;;;;4.88;3.20;;;;;;;-145.23;100.00;58621.06;5003915;28;20603;-52
2022/09/26 07:44:18;;;;;;;3.30;2.88;;;;;;;-145.23;100.00;58621.06;5002313;28;20273;-53
2022/09/26 07:52:14;;;;;;;4.22;2.60;;;;;;;-145.23;100.00;58621.06;5002438;28;20247;-51
2022/09/26 07:54:42;;;;;;;4.70;2.92;;;;;;;-145.23;100.00;58621.06;4998107;28;20237;-52
2022/09/26 07:57:09;;;;;;;4.57;2.85;;;;;;;-145.23;100.00;58621.06;5010761;28;20238;-50
2022/09/26 07:59:35;;;;;;;5.55;2.85;;;;;;;-145.23;100.00;58621.06;4999379;28;20230;-51
2022/09/26 08:02:02;;;;;;;4.72;2.47;;;;;;;-145.23;100.00;58621.06;5008967;28;20237;-52
2022/09/26 08:04:29;;;;;;;2.72;2.00;;;;;;;-145.23;100.00;58621.06;5009133;28;20228;-53
2022/09/26 08:06:56;;;;;;;2.65;2.03;;;;;;;-145.23;100.00;58621.06;5010301;28;20233;-52
2022/09/26 08:09:24;;;;;;;2.55;1.55;;;;;;;-145.23;100.00;58621.06;5009964;28;20232;-53
2022/09/26 08:11:51;;;;;;;5.38;2.00;;;;;;;-145.23;100.00;58621.06;5012495;28;20229;-53
2022/09/26 08:14:18;;;;;;;4.47;2.17;;;;;;;-145.23;100.00;58621.06;5008080;28;20742;-52
2022/09/26 08:16:44;;;;;;;2.78;1.77;;;;;;;-145.23;100.00;58621.06;5002702;28;20254;-53
2022/09/26 08:19:16;;;;;;;2.08;1.95;;;;;;;-145.23;100.00;58621.06;5008248;28;20244;-52
2022/09/26 08:21:42;;;;;;;3.38;2.08;;;;;;;-145.23;100.00;58621.06;5004479;28;20245;-52
2022/09/26 08:24:09;;;;;;;4.47;2.83;;;;;;;-145.23;100.00;58621.06;4995084;28;20228;-51
2022/09/26 08:26:37;;;;;;;8.23;2.55;;;;;;;-145.23;100.00;58621.06;5015249;28;20241;-51
2022/09/26 08:29:03;;;;;;;3.75;1.88;;;;;;;-145.23;100.00;58621.06;5014728;28;20654;-52
2022/09/26 08:31:30;;;;;;;2.97;1.85;;;;;;;-145.23;100.00;58621.06;4998290;28;20237;-50
2022/09/26 08:33:57;;;;;;;4.25;1.80;;;;;;;-145.23;100.00;58621.06;4993073;28;20291;-52
2022/09/26 08:36:24;;;;;;;3.88;1.77;;;;;;;-145.23;100.00;58621.06;4999502;28;20330;-53
2022/09/26 08:38:50;;;;;;;2.92;1.75;;;;;;;-145.23;100.00;58621.06;5004427;28;20249;-52
2022/09/26 08:41:31;;;;;;;1.55;1.45;;;;;;;-145.23;100.00;58621.06;4992433;28;20249;-53
2022/09/26 08:44:06;;;;;;;1.67;1.55;;;;;;;-145.23;100.00;58621.06;5000164;28;20313;-51
2022/09/26 08:46:46;;;;;;;3.92;1.90;;;;;;;-145.23;100.00;58621.06;4989234;28;20233;-52
2022/09/26 08:49:26;;;;;;;2.10;1.85;;;;;;;-145.23;100.00;58621.06;4988166;28;20230;-51
2022/09/26 08:51:54;;;;;;;5.70;1.67;;;;;;;-145.23;100.00;58621.06;5001952;28;20236;-51
2022/09/26 08:54:31;;;;;;;2.55;1.75;;;;;;;-145.23;100.00;58621.06;5007742;28;20230;-50
2022/09/26 08:57:01;;;;;;;5.13;1.60;;;;;;;-145.23;100.00;58621.06;5003108;28;20755;-53
2022/09/26 08:59:41;;;;;;;4.82;1.80;;;;;;;-145.23;100.00;58621.06;4993999;28;20277;-52
2022/09/26 09:02:16;;;;;;;2.78;1.67;;;;;;;-145.23;100.00;58621.06;5008168;28;20308;-52
2022/09/26 09:04:46;;;;;;;1.00;1.00;;;;;;;-145.23;100.00;58621.06;5003354;28;20266;-53
2022/09/26 09:07:21;;;;;;;2.13;1.30;;;;;;;-145.23;100.00;58621.06;4995624;28;20235;-52
2022/09/26 09:09:48;;;;;;;1.65;1.15;;;;;;;-145.23;100.00;58621.06;5002857;28;20248;-54
2022/09/26 09:12:17;;;;;;;4.50;1.42;;;;;;;-145.23;100.00;58621.06;5015648;28;20244;-51
2022/09/26 09:15:02;;;;;;;1.02;1.02;;;;;;;-145.23;100.00;58621.06;4993517;28;20233;-52
2022/09/26 09:17:36;;;;;;;3.63;1.00;;;;;;;-145.23;100.00;58621.06;5012490;28;20238;-53
2022/09/26 09:20:12;;;;;;;1.85;1.52;;;;;;;-145.23;100.00;58621.06;5013458;28;20239;-52
2022/09/26 09:22:48;;;;;;;1.63;1.10;;;;;;;-145.23;100.00;58621.06;5012901;28;20229;-49
2022/09/26 09:25:16;;;;;;;1.73;0.63;;;;;;;-145.23;100.00;58621.06;5023070;28;20233;-51
2022/09/26 09:27:53;;;;;;;0.85;0.85;;;;;;;-145.23;100.00;58621.06;5018933;28;20295;-51
2022/09/26 09:30:22;;;;;;;3.42;1.15;;;;;;;-145.23;100.00;58621.06;4990628;28;20233;-51
2022/09/26 09:32:53;;;;;;;5.05;1.00;;;;;;;-145.23;100.00;58621.06;4995332;28;20289;-52
2022/09/26 09:35:34;;;;;;;1.50;1.20;;;;;;;-145.23;100.00;58621.06;5007342;28;20233;-52
2022/09/26 09:38:01;;;;;;;0.68;0.68;;;;;;;-145.23;100.00;58621.06;5007769;28;20237;-52
2022/09/26 09:40:32;;;;;;;1.35;1.25;;;;;;;-145.23;100.00;58621.06;5003675;28;20236;-52
2022/09/26 09:43:02;;;;;;;3.60;0.98;;;;;;;-145.23;100.00;58621.06;5008046;28;20245;-52
2022/09/26 09:45:37;;;;;;;0.85;0.70;;;;;;;-145.23;100.00;58621.06;5005476;28;20233;-51
2022/09/26 09:48:08;;;;;;;3.10;1.00;;;;;;;-145.23;100.00;58621.06;5007125;28;20779;-53
2022/09/26 09:50:40;;;;;;;3.28;0.90;;;;;;;-145.23;100.00;58621.06;4996426;28;20236;-51
2022/09/26 09:53:13;;;;;;;2.55;1.20;;;;;;;-145.23;100.00;58621.06;5002615;28;20240;-52
2022/09/26 09:55:47;;;;;;;1.25;0.90;;;;;;;-145.23;100.00;58621.06;5009361;28;20631;-52
2022/09/26 09:58:24;;;;;;;1.67;1.00;;;;;;;-145.23;100.00;58621.06;4987265;28;20245;-53
2022/09/26 10:00:59;;;;;;;1.65;1.10;;;;;;;-145.23;100.00;58621.06;4997690;28;20248;-53
2022/09/26 10:03:28;;;;;;;1.35;0.80;;;;;;;-145.23;100.00;58621.06;5012700;28;20297;-51
2022/09/26 10:05:57;;;;;;;2.50;1.10;;;;;;;-145.23;100.00;58621.06;5012814;28;20608;-53
2022/09/26 10:08:30;;;;;;;2.30;1.38;;;;;;;-145.23;100.00;58621.06;5006511;28;20241;-52
2022/09/26 10:11:11;;;;;;;3.50;1.05;;;;;;;-145.23;100.00;58621.06;5006617;28;20244;-51
2022/09/26 10:13:41;;;;;;;1.60;0.90;;;;;;;-145.23;100.00;58621.06;5010340;28;20669;-53
2022/09/26 10:16:14;;;;;;;5.63;1.20;;;;;;;-145.23;100.00;58621.06;4989704;28;20311;-52
2022/09/26 10:18:53;;;;;;;1.02;0.85;;;;;;;-145.23;100.00;58621.06;5006575;28;20319;-51
2022/09/26 10:21:19;;;;;;;1.65;0.98;;;;;;;-145.23;100.00;58621.06;4992597;28;20707;-53
2022/09/26 10:23:47;;;;;;;2.50;1.17;;;;;;;-145.23;100.00;58621.06;5011574;28;20235;-51
2022/09/26 10:26:14;;;;;;;2.20;1.42;;;;;;;-145.23;100.00;58621.06;5004713;28;20261;-51
2022/09/26 10:28:45;;;;;;;2.13;1.58;;;;;;;-145.23;100.00;58621.06;4994155;28;20238;-52
2022/09/26 10:31:22;;;;;;;3.75;1.42;;;;;;;-145.23;100.00;58621.06;5002094;28;20679;-51
2022/09/26 10:33:56;;;;;;;2.15;1.20;;;;;;;-145.23;100.00;58621.06;5006516;28;20224;-52
2022/09/26 10:36:31;;;;;;;2.08;1.35;;;;;;;-145.23;100.00;58621.06;5003324;28;20287;-51
2022/09/26 10:41:45;;;;;;;5.97;1.70;;;;;;;-145.23;100.00;58621.06;4990506;28;20330;-52
2022/09/26 10:44:24;;;;;;;3.55;1.55;;;;;;;-145.23;100.00;58621.06;4992305;28;20324;-52
2022/09/26 10:46:56;;;;;;;2.22;1.40;;;;;;;-145.23;100.00;58621.06;5002524;28;20256;-51
2022/09/26 10:49:26;;;;;;;1.00;1.00;;;;;;;-145.23;100.00;58621.06;5006537;28;20283;-51
2022/09/26 10:51:59;;;;;;;4.40;1.30;;;;;;;-145.23;100.00;58621.06;5010802;28;20649;-52
2022/09/26 10:54:36;;;;;;;1.20;1.10;;;;;;;-145.23;100.00;58621.06;4998779;28;20225;-52
2022/09/26 10:57:08;;;;;;;1.67;1.17;;;;;;;-145.23;100.00;58621.06;4997806;28;20259;-51
2022/09/26 10:59:39;;;;;;;1.75;1.27;;;;;;;-145.23;100.00;58621.06;5003619;28;20230;-51
2022/09/26 11:02:18;;;;;;;1.23;0.98;;;;;;;-145.23;100.00;58621.06;4996052;28;20237;-51
2022/09/26 11:07:34;;;;;;;1.00;0.93;;;;;;;-145.23;100.00;58621.06;4985996;28;20327;-52
2022/09/26 11:10:05;;;;;;;1.30;0.95;;;;;;;-145.23;100.00;58621.06;4990690;28;20312;-53
2022/09/26 11:12:38;;;;;;;0.90;0.90;;;;;;;-145.23;100.00;58621.06;4997588;28;20321;-53
2022/09/26 11:15:07;;;;;;;1.23;0.90;;;;;;;-145.23;100.00;58621.06;5001791;28;20287;-52
2022/09/26 11:17:44;;;;;;;2.58;0.90;;;;;;;-145.23;100.00;58621.06;5009940;28;20232;-52
2022/09/26 11:20:17;;;;;;;1.42;0.95;;;;;;;-145.23;100.00;58621.06;5010605;28;20248;-52
2022/09/26 11:22:49;;;;;;;1.75;1.00;;;;;;;-145.23;100.00;58621.06;5004372;28;20237;-52
2022/09/26 11:25:21;;;;;;;1.10;0.98;;;;;;;-145.23;100.00;58621.06;4997230;28;20717;-53
2022/09/26 11:27:50;;;;;;;1.33;1.17;;;;;;;-145.23;100.00;58621.06;4998762;28;20239;-52
2022/09/26 11:30:19;;;;;;;0.98;0.98;;;;;;;-145.23;100.00;58621.06;5003716;28;20224;-52
2022/09/26 11:32:50;;;;;;;2.92;1.13;;;;;;;-145.23;100.00;58621.06;5013314;28;20241;-52
2022/09/26 11:35:20;;;;;;;1.02;0.70;;;;;;;-145.23;100.00;58621.06;5012693;28;20241;-53
2022/09/26 11:38:05;;;;;;;2.88;1.35;;;;;;;-145.23;100.00;58621.06;5021728;28;20267;-52